METAR AND TAF INFORMATION
METAR FOR HKJK
ADDS - METARS form results

(2018 UTC 20 February 2020)
Data provider http://aviationweather.gov/metar/data/
 
METAR text: HKJK 202000Z 07005KT CAVOK 21/17 Q1021 NOSIG
Conditions at: HKJK (NAIROBI/JOMO KEN, KE) observed 2000 UTC 20 February 2020
Temperature: 21.0°C (70°F)
Dewpoint: 17.0°C (63°F) [RH = 78%]
Pressure (altimeter): 30.15 inches Hg (1021.0 mb)
Winds: from the ENE (70 degrees) at 6 MPH (5 knots; 2.6 m/s)
Visibility: 6 or more miles (10+ km)
Ceiling: ceiling and visibility are OK
Clouds: unknown
Weather: no significant weather observed at this time

METAR text: HKJK 201930Z 07008KT CAVOK 21/17 Q1021 NOSIG
Conditions at: HKJK (NAIROBI/JOMO KEN, KE) observed 1930 UTC 20 February 2020
Temperature: 21.0°C (70°F)
Dewpoint: 17.0°C (63°F) [RH = 78%]
Pressure (altimeter): 30.15 inches Hg (1021.0 mb)
Winds: from the ENE (70 degrees) at 9 MPH (8 knots; 4.1 m/s)
Visibility: 6 or more miles (10+ km)
Ceiling: ceiling and visibility are OK
Clouds: unknown
Weather: no significant weather observed at this time

 AIRPORT MAP

 RUNWAY INFORMATION
Runway 06 Runway length 13507 ft Runway width 148 ft
Runway elevation 5330 ft Runway displaced threshold 0 ft Runway heading 54
Runway 24 Runway length 13507 ft Runway width 148 ft
Runway elevation 5281 ft Runway displaced threshold 0 ft Runway heading 234

 AIRPORT FREQUENCIES
Type APP Name APP Frequency 122.3 MHZ
Type ATIS Name ATIS Frequency 126.2 MHZ
Type RMP Name APRON CTL Frequency 121.6 MHZ
Type TWR Name TWR Frequency 118.7 MHZ

 AIRPORT NEAR NAVIGATION AIDS
Type NDB Name Embakasi Frequency 379 KHZ
Type NDB Name Ngong Frequency 315 KHZ
Type VOR-DME Name Ngong Frequency 115900 KHZ
Type NDB Name Nairobi Frequency 283 KHZ
Type NDB Name Nairobi Frequency 278 KHZ
Type VOR-DME Name Nairobi Frequency 113100 KHZ
Type NDB Name Athi River Frequency 330 KHZ
Type VOR Name Athi River Frequency 115500 KHZ



Powered by Virtual Airlines Manager [v2.6.2]